createdAt,value
2022-12-13T00:00:24.673Z,78.94
2022-12-13T00:02:54.757Z,78.72
2022-12-13T00:05:24.572Z,78.26
2022-12-13T00:07:54.527Z,78.10
2022-12-13T00:10:26.942Z,77.73
2022-12-13T00:12:56.727Z,77.67
2022-12-13T00:15:26.478Z,77.45
2022-12-13T00:17:56.220Z,77.17
2022-12-13T00:20:26.009Z,76.80
2022-12-13T00:22:55.733Z,77.05
2022-12-13T00:25:28.531Z,76.29
2022-12-13T00:27:58.353Z,76.62
2022-12-13T00:30:31.601Z,76.35
2022-12-13T00:33:01.887Z,76.08
2022-12-13T00:35:31.706Z,76.93
2022-12-13T00:38:01.444Z,77.68
2022-12-13T00:40:34.014Z,77.86
2022-12-13T00:43:03.761Z,77.72
2022-12-13T00:45:33.509Z,77.49
2022-12-13T00:48:03.490Z,76.78
2022-12-13T00:50:33.294Z,76.61
2022-12-13T00:53:03.858Z,76.33
2022-12-13T00:55:36.236Z,75.67
2022-12-13T00:58:06.011Z,75.63
2022-12-13T01:00:36.859Z,75.73
2022-12-13T01:03:20.586Z,75.44
2022-12-13T01:06:14.264Z,75.89
2022-12-13T01:08:40.924Z,76.40
2022-12-13T01:11:14.540Z,76.24
2022-12-13T01:13:44.882Z,76.03
2022-12-13T01:16:16.371Z,75.98
2022-12-13T01:18:46.144Z,76.18
2022-12-13T01:21:18.458Z,76.64
2022-12-13T01:23:48.592Z,76.41
2022-12-13T01:26:22.730Z,76.35
2022-12-13T01:28:52.753Z,76.54
2022-12-13T01:31:23.624Z,76.10
2022-12-13T01:33:53.498Z,75.92
2022-12-13T01:36:27.879Z,76.15
2022-12-13T01:38:59.414Z,75.95
2022-12-13T01:41:34.493Z,75.57
2022-12-13T01:44:05.961Z,76.09
2022-12-13T01:46:37.214Z,76.16
2022-12-13T01:49:19.828Z,75.94
2022-12-13T01:51:53.093Z,75.82
2022-12-13T01:54:34.074Z,75.89
2022-12-13T01:57:10.636Z,75.45
2022-12-13T01:59:42.393Z,75.75
2022-12-13T02:02:15.169Z,75.70
2022-12-13T02:04:51.535Z,76.16
2022-12-13T02:07:24.533Z,76.73
2022-12-13T02:09:56.403Z,76.61
2022-12-13T02:12:32.225Z,76.77
2022-12-13T02:15:03.724Z,77.30
2022-12-13T02:17:49.757Z,78.33
2022-12-13T02:20:36.793Z,77.87
2022-12-13T02:23:21.528Z,78.40
2022-12-13T02:26:18.780Z,77.70
2022-12-13T02:29:11.450Z,77.33
2022-12-13T02:31:50.736Z,77.70
2022-12-13T02:34:25.695Z,77.40
2022-12-13T02:37:04.699Z,78.27
2022-12-13T02:39:57.061Z,79.11
2022-12-13T02:42:32.516Z,79.12
2022-12-13T02:45:09.088Z,77.67
2022-12-13T02:47:44.591Z,77.13
2022-12-13T02:50:17.554Z,76.65
2022-12-13T02:52:48.196Z,76.69
2022-12-13T02:55:22.847Z,76.15
2022-12-13T02:57:55.001Z,75.92
2022-12-13T03:00:32.098Z,76.00
2022-12-13T03:03:18.751Z,75.84
2022-12-13T03:06:09.148Z,76.48
2022-12-13T03:08:50.557Z,76.22
2022-12-13T03:11:23.066Z,76.26
2022-12-13T03:13:54.088Z,75.77
2022-12-13T03:16:30.231Z,75.56
2022-12-13T03:19:04.918Z,75.24
2022-12-13T03:21:46.995Z,75.44
2022-12-13T03:24:20.086Z,75.35
2022-12-13T03:26:52.084Z,75.47
2022-12-13T03:29:25.139Z,75.91
2022-12-13T03:31:55.442Z,75.71
2022-12-13T03:34:44.753Z,75.61
2022-12-13T03:37:17.210Z,76.22
2022-12-13T03:39:47.091Z,76.06
2022-12-13T03:42:17.823Z,75.98
2022-12-13T03:44:47.612Z,75.86
2022-12-13T03:47:17.571Z,75.87
2022-12-13T03:49:54.205Z,75.96
2022-12-13T03:52:24.265Z,76.14
2022-12-13T03:54:54.148Z,76.23
2022-12-13T03:57:23.927Z,76.88
2022-12-13T03:59:53.706Z,76.70
2022-12-13T04:02:31.426Z,76.75
2022-12-13T04:05:04.032Z,76.47
2022-12-13T04:07:34.361Z,76.09
2022-12-13T04:10:04.495Z,75.73
2022-12-13T04:13:06.841Z,75.93
2022-12-13T04:15:36.606Z,75.20
2022-12-13T04:18:06.697Z,75.29
2022-12-13T04:20:39.040Z,75.25
2022-12-13T04:23:10.282Z,75.51
2022-12-13T04:25:40.780Z,75.43
2022-12-13T04:28:11.083Z,75.19
2022-12-13T04:30:40.973Z,75.71
2022-12-13T04:33:10.775Z,76.03
2022-12-13T04:35:43.142Z,76.42
2022-12-13T04:38:12.935Z,77.18
2022-12-13T04:40:42.741Z,77.85
2022-12-13T04:43:12.760Z,78.05
2022-12-13T04:45:42.692Z,77.69
2022-12-13T04:48:13.804Z,77.30
2022-12-13T04:51:05.014Z,77.09
2022-12-13T04:53:34.833Z,77.10
2022-12-13T04:56:06.033Z,76.81
2022-12-13T04:58:36.080Z,76.62
2022-12-13T05:01:09.607Z,75.85
2022-12-13T05:03:40.156Z,75.85
2022-12-13T05:06:27.530Z,76.07
2022-12-13T05:09:00.589Z,76.07
2022-12-13T05:11:35.925Z,76.55
2022-12-13T05:14:06.462Z,76.63
2022-12-13T05:16:36.289Z,76.46
2022-12-13T05:19:06.064Z,76.29
2022-12-13T05:21:38.413Z,75.69
2022-12-13T05:24:10.400Z,75.97
2022-12-13T05:26:40.139Z,75.88
2022-12-13T05:29:09.891Z,75.89
2022-12-13T05:31:39.738Z,76.08
2022-12-13T05:34:09.618Z,76.03
2022-12-13T05:36:41.962Z,76.07
2022-12-13T05:39:27.824Z,76.31
2022-12-13T05:42:02.755Z,76.79
2022-12-13T05:44:34.358Z,76.77
2022-12-13T05:47:04.206Z,76.27
2022-12-13T05:49:34.146Z,76.33
2022-12-13T05:52:06.580Z,76.25
2022-12-13T05:54:36.334Z,76.79
2022-12-13T05:57:06.161Z,77.21
2022-12-13T05:59:36.206Z,77.29
2022-12-13T06:02:06.228Z,78.05
2022-12-13T06:04:36.300Z,77.78
2022-12-13T06:07:08.799Z,77.26
2022-12-13T06:09:40.244Z,76.98
2022-12-13T06:12:31.198Z,76.44
2022-12-13T06:15:01.721Z,76.18
2022-12-13T06:17:33.769Z,76.33
2022-12-13T06:20:23.499Z,76.23
2022-12-13T06:22:56.445Z,76.97
2022-12-13T06:25:31.516Z,77.09
2022-12-13T06:28:02.213Z,77.29
2022-12-13T06:30:32.266Z,77.28
2022-12-13T06:33:02.214Z,76.89
2022-12-13T06:35:35.261Z,76.54
2022-12-13T06:38:11.707Z,76.57
2022-12-13T06:40:42.493Z,76.14
2022-12-13T06:43:12.330Z,76.51
2022-12-13T06:45:43.209Z,75.95
2022-12-13T06:48:16.287Z,75.53
2022-12-13T06:50:50.122Z,75.37
2022-12-13T06:53:24.893Z,75.90
2022-12-13T06:55:56.064Z,76.00
2022-12-13T06:58:27.088Z,76.00
2022-12-13T07:01:04.826Z,75.88
2022-12-13T07:03:35.007Z,75.90
2022-12-13T07:06:08.734Z,75.99
2022-12-13T07:08:41.158Z,75.96
2022-12-13T07:11:11.383Z,76.20
2022-12-13T07:13:41.181Z,76.74
2022-12-13T07:16:11.458Z,77.37
2022-12-13T07:18:41.735Z,77.33
2022-12-13T07:21:22.008Z,77.15
2022-12-13T07:23:55.616Z,76.92
2022-12-13T07:26:26.555Z,77.39
2022-12-13T07:28:56.358Z,78.87
2022-12-13T07:31:29.782Z,78.38
2022-12-13T07:34:00.073Z,77.39
2022-12-13T07:36:30.886Z,77.29
2022-12-13T07:39:04.311Z,76.99
2022-12-13T07:41:34.095Z,76.86
2022-12-13T07:44:03.961Z,76.82
2022-12-13T07:46:34.136Z,76.69
2022-12-13T07:49:05.010Z,76.53
2022-12-13T07:51:39.656Z,77.02
2022-12-13T07:54:15.235Z,77.00
2022-12-13T07:56:45.947Z,77.52
2022-12-13T07:59:16.316Z,77.10
2022-12-13T08:02:01.902Z,77.33
2022-12-13T08:04:37.839Z,76.80
2022-12-13T08:07:11.968Z,76.94
2022-12-13T08:09:53.019Z,76.71
2022-12-13T08:12:23.205Z,77.50
2022-12-13T08:14:53.947Z,77.24
2022-12-13T08:17:24.937Z,76.86
2022-12-13T08:19:54.727Z,77.20
2022-12-13T08:22:27.755Z,76.99
2022-12-13T08:25:12.709Z,76.55
2022-12-13T08:27:43.205Z,76.67
2022-12-13T08:30:18.929Z,76.25
2022-12-13T08:32:53.539Z,76.68
2022-12-13T08:35:23.295Z,76.87
2022-12-13T08:37:56.814Z,76.68
2022-12-13T08:40:33.483Z,77.07
2022-12-13T08:43:03.597Z,77.87
2022-12-13T08:45:34.486Z,78.40
2022-12-13T08:48:05.520Z,81.01
2022-12-13T08:50:36.327Z,90.55
2022-12-13T08:53:08.082Z,80.85
2022-12-13T08:55:40.485Z,78.73
2022-12-13T08:58:11.265Z,78.13
2022-12-13T09:00:42.758Z,78.23
2022-12-13T09:03:12.609Z,78.14
2022-12-13T09:05:42.468Z,78.09
2022-12-13T09:08:24.710Z,78.21
2022-12-13T09:11:11.211Z,78.26
2022-12-13T09:13:52.411Z,78.38
2022-12-13T09:16:36.464Z,78.35
2022-12-13T09:19:25.150Z,78.58
2022-12-13T09:22:02.884Z,78.99
2022-12-13T09:24:36.607Z,79.05
2022-12-13T09:27:10.400Z,79.15
2022-12-13T09:29:57.435Z,79.10
2022-12-13T09:32:27.767Z,79.07
2022-12-13T09:34:57.802Z,79.37
2022-12-13T09:37:32.209Z,79.37
2022-12-13T09:40:16.345Z,79.56
2022-12-13T09:43:12.740Z,80.00
2022-12-13T09:45:48.639Z,80.13
2022-12-13T09:48:23.232Z,80.50
2022-12-13T09:51:16.579Z,80.82
2022-12-13T09:53:52.291Z,81.47
2022-12-13T09:56:25.091Z,81.90
2022-12-13T09:58:59.448Z,82.31
2022-12-13T10:01:32.742Z,82.88
2022-12-13T10:04:03.922Z,82.79
2022-12-13T10:06:35.244Z,83.58
2022-12-13T10:09:05.122Z,84.95
2022-12-13T10:11:38.747Z,86.50
2022-12-13T10:14:15.688Z,87.72
2022-12-13T10:16:49.574Z,88.72
2022-12-13T10:19:28.269Z,89.30
2022-12-13T10:22:04.622Z,89.51
2022-12-13T10:24:52.784Z,90.20
2022-12-13T10:27:31.488Z,90.04
2022-12-13T10:30:08.541Z,90.33
2022-12-13T10:32:48.803Z,89.89
2022-12-13T10:35:25.950Z,91.11
2022-12-13T10:38:00.151Z,90.85
2022-12-13T10:40:35.260Z,91.00
2022-12-13T10:43:16.028Z,90.27
2022-12-13T10:46:02.492Z,89.89
2022-12-13T10:48:40.386Z,89.37
2022-12-13T10:51:20.114Z,88.99
2022-12-13T10:53:53.554Z,88.59
2022-12-13T10:56:25.978Z,88.17
2022-12-13T10:59:17.301Z,87.81
2022-12-13T11:01:50.217Z,88.34
2022-12-13T11:04:28.380Z,87.94
2022-12-13T11:07:00.500Z,88.66
2022-12-13T11:09:38.240Z,88.41
2022-12-13T11:12:16.453Z,88.39
2022-12-13T11:14:55.548Z,89.10
2022-12-13T11:17:34.368Z,89.30
2022-12-13T11:20:18.425Z,89.05
2022-12-13T11:23:01.686Z,88.96
2022-12-13T11:25:38.630Z,88.25
2022-12-13T11:28:27.078Z,88.03
2022-12-13T11:31:09.198Z,87.99
2022-12-13T11:33:54.896Z,87.08
2022-12-13T11:36:35.427Z,87.19
2022-12-13T11:39:23.251Z,87.11
2022-12-13T11:41:58.895Z,87.71
2022-12-13T11:44:47.745Z,86.64
2022-12-13T11:47:27.335Z,86.58
2022-12-13T11:50:02.676Z,87.37
2022-12-13T11:52:38.597Z,87.14
2022-12-13T11:55:17.609Z,88.22
2022-12-13T11:57:57.954Z,87.26
2022-12-13T12:00:37.085Z,87.24
2022-12-13T12:03:20.091Z,86.72
2022-12-13T12:06:00.355Z,86.25
2022-12-13T12:08:41.102Z,86.19
2022-12-13T12:11:19.513Z,86.02
2022-12-13T12:13:55.662Z,86.23
2022-12-13T12:16:38.588Z,86.38
2022-12-13T12:19:16.281Z,85.74
2022-12-13T12:22:16.226Z,85.17
2022-12-13T12:25:00.161Z,84.83
2022-12-13T12:27:41.482Z,84.32
2022-12-13T12:30:22.498Z,84.32
2022-12-13T12:33:02.679Z,84.25
2022-12-13T12:36:04.663Z,83.42
2022-12-13T12:39:02.354Z,84.13
2022-12-13T12:41:43.584Z,83.92
2022-12-13T12:44:24.262Z,83.95
2022-12-13T12:50:27.043Z,83.36
2022-12-13T12:53:05.488Z,83.51
2022-12-13T12:55:49.276Z,82.40
2022-12-13T12:58:26.804Z,82.07
2022-12-13T13:01:15.335Z,81.23
2022-12-13T13:03:46.281Z,82.66
2022-12-13T13:06:22.843Z,79.44
2022-12-13T13:08:56.832Z,78.47
2022-12-13T13:11:43.074Z,79.62
2022-12-13T13:14:37.871Z,79.57
2022-12-13T13:17:43.269Z,80.05
2022-12-13T13:20:26.055Z,80.38
2022-12-13T13:23:39.136Z,80.09
2022-12-13T13:26:24.305Z,79.38
2022-12-13T13:28:50.064Z,78.83
2022-12-13T13:31:20.169Z,79.27
2022-12-13T13:33:51.498Z,79.43
2022-12-13T13:36:52.688Z,79.34
2022-12-13T13:39:55.854Z,78.13
2022-12-13T13:42:28.824Z,78.25
2022-12-13T13:45:25.236Z,77.66
2022-12-13T13:48:15.847Z,77.61
2022-12-13T13:51:29.858Z,76.69
2022-12-13T13:54:30.914Z,76.90
2022-12-13T13:57:45.596Z,76.58
2022-12-13T14:00:25.482Z,76.88
2022-12-13T14:03:36.100Z,75.91
2022-12-13T14:06:37.376Z,76.02
2022-12-13T14:09:24.431Z,76.52
2022-12-13T14:12:25.978Z,76.22
2022-12-13T14:15:25.814Z,76.10
2022-12-13T14:18:38.101Z,76.06
2022-12-13T14:21:15.663Z,76.58
2022-12-13T14:24:09.299Z,76.61
2022-12-13T14:26:51.614Z,76.35
2022-12-13T14:29:26.921Z,76.73
2022-12-13T14:31:56.904Z,76.59
2022-12-13T14:34:31.225Z,76.70
2022-12-13T14:37:03.230Z,76.63
2022-12-13T14:39:34.814Z,76.96
2022-12-13T14:42:24.456Z,76.57
2022-12-13T14:44:55.160Z,77.00
2022-12-13T14:47:25.776Z,76.93
2022-12-13T14:49:59.330Z,77.31
2022-12-13T14:52:34.810Z,77.64
2022-12-13T14:55:06.204Z,77.79
2022-12-13T14:57:37.779Z,77.62
2022-12-13T15:00:26.028Z,77.28
2022-12-13T15:02:59.907Z,77.88
2022-12-13T15:05:36.574Z,78.00
2022-12-13T15:08:11.614Z,77.83
2022-12-13T15:10:48.395Z,78.55
2022-12-13T15:13:29.001Z,79.18
2022-12-13T15:16:10.402Z,79.25
2022-12-13T15:18:50.479Z,79.06
2022-12-13T15:21:28.124Z,79.01
2022-12-13T15:24:01.951Z,79.18
2022-12-13T15:26:34.708Z,78.97
2022-12-13T15:29:10.914Z,78.98
2022-12-13T15:31:41.142Z,79.47
2022-12-13T15:34:28.303Z,78.63
2022-12-13T15:37:05.945Z,78.74
2022-12-13T15:39:40.827Z,78.48
2022-12-13T15:42:21.672Z,78.38
2022-12-13T15:44:56.228Z,78.50
2022-12-13T15:47:28.590Z,78.72
2022-12-13T15:50:00.842Z,78.72
2022-12-13T15:52:38.881Z,78.14
2022-12-13T15:55:28.990Z,77.76
2022-12-13T15:58:00.455Z,78.49
2022-12-13T16:00:31.934Z,78.09
2022-12-13T16:03:09.601Z,78.21
2022-12-13T16:05:43.456Z,78.38
2022-12-13T16:08:28.906Z,78.54
2022-12-13T16:11:00.232Z,79.07
2022-12-13T16:13:32.981Z,79.17
2022-12-13T16:16:09.143Z,79.08
2022-12-13T16:18:49.165Z,78.84
2022-12-13T16:21:19.318Z,79.31
2022-12-13T16:23:51.778Z,78.52
2022-12-13T16:26:26.378Z,78.38
2022-12-13T16:28:58.657Z,78.40
2022-12-13T16:31:35.452Z,77.83
2022-12-13T16:34:05.872Z,77.60
2022-12-13T16:36:36.760Z,77.55
2022-12-13T16:39:12.591Z,77.62
2022-12-13T16:41:48.226Z,77.71
2022-12-13T16:44:25.585Z,77.69
2022-12-13T16:47:13.384Z,77.64
2022-12-13T16:49:45.257Z,78.10
2022-12-13T16:52:15.085Z,78.02
2022-12-13T16:54:48.426Z,78.13
2022-12-13T16:57:18.247Z,78.92
2022-12-13T16:59:47.996Z,79.60
2022-12-13T17:02:20.426Z,80.15
2022-12-13T17:04:50.199Z,80.49
2022-12-13T17:07:19.922Z,80.60
2022-12-13T17:09:53.286Z,80.00
2022-12-13T17:12:22.993Z,80.01
2022-12-13T17:14:52.764Z,80.12
2022-12-13T17:17:22.596Z,79.52
2022-12-13T17:19:53.512Z,79.64
2022-12-13T17:22:23.371Z,79.74
2022-12-13T17:24:55.712Z,79.12
2022-12-13T17:27:25.542Z,79.20
2022-12-13T17:29:56.389Z,79.25
2022-12-13T17:32:26.388Z,79.05
2022-12-13T17:34:56.381Z,78.85
2022-12-13T17:37:26.425Z,78.53
2022-12-13T17:39:59.104Z,78.30
2022-12-13T17:42:29.035Z,78.51
2022-12-13T17:44:58.780Z,78.19
2022-12-13T17:47:29.555Z,78.42
2022-12-13T17:49:59.503Z,78.37
2022-12-13T17:52:29.330Z,77.87
2022-12-13T17:55:04.587Z,78.18
2022-12-13T17:57:35.093Z,78.50
2022-12-13T18:00:06.970Z,79.20
2022-12-13T18:02:42.423Z,80.03
2022-12-13T18:05:26.334Z,80.15
2022-12-13T18:07:56.228Z,79.79
2022-12-13T18:10:30.310Z,80.26
2022-12-13T18:13:00.286Z,80.63
2022-12-13T18:15:30.186Z,81.00
2022-12-13T18:18:15.950Z,81.45
2022-12-13T18:20:46.524Z,81.00
2022-12-13T18:23:16.766Z,80.70
2022-12-13T18:25:51.080Z,80.88
2022-12-13T18:28:22.141Z,80.56
2022-12-13T18:30:52.013Z,80.08
2022-12-13T18:33:24.413Z,79.34
2022-12-13T18:35:54.455Z,79.43
2022-12-13T18:38:26.215Z,79.40
2022-12-13T18:41:00.719Z,79.58
2022-12-13T18:43:30.484Z,80.80
2022-12-13T18:46:04.795Z,80.93
2022-12-13T18:48:35.267Z,81.12
2022-12-13T18:51:07.899Z,81.19
2022-12-13T18:53:39.273Z,81.42
2022-12-13T18:56:18.369Z,81.54
2022-12-13T18:58:50.230Z,82.02
2022-12-13T19:01:21.366Z,81.77
2022-12-13T19:03:51.711Z,81.99
2022-12-13T19:06:24.341Z,81.41
2022-12-13T19:08:55.645Z,80.84
2022-12-13T19:11:29.226Z,80.49
2022-12-13T19:13:59.418Z,82.04
2022-12-13T19:16:29.575Z,81.54
2022-12-13T19:19:00.387Z,81.20
2022-12-13T19:21:30.277Z,80.95
2022-12-13T19:24:01.450Z,80.55
2022-12-13T19:26:35.069Z,80.50
2022-12-13T19:29:05.457Z,80.66
2022-12-13T19:31:35.633Z,80.79
2022-12-13T19:34:05.590Z,81.05
2022-12-13T19:36:35.490Z,80.58
2022-12-13T19:39:05.293Z,82.51
2022-12-13T19:41:37.822Z,81.48
2022-12-13T19:44:08.384Z,82.07
2022-12-13T19:46:38.291Z,82.03
2022-12-13T19:49:08.157Z,81.69
2022-12-13T19:51:39.958Z,81.56
2022-12-13T19:54:10.774Z,81.37
2022-12-13T19:56:43.419Z,81.24
2022-12-13T19:59:13.755Z,80.62
2022-12-13T20:01:43.882Z,79.79
2022-12-13T20:04:14.019Z,79.51
2022-12-13T20:06:43.916Z,78.83
2022-12-13T20:09:13.753Z,79.15
2022-12-13T20:11:47.120Z,79.80
2022-12-13T20:14:16.909Z,79.91
2022-12-13T20:16:46.713Z,79.61
2022-12-13T20:19:18.090Z,79.15
2022-12-13T20:21:52.330Z,78.91
2022-12-13T20:24:26.436Z,78.98
2022-12-13T20:26:58.798Z,78.95
2022-12-13T20:29:29.639Z,79.29
2022-12-13T20:31:59.657Z,79.34
2022-12-13T20:34:31.848Z,79.02
2022-12-13T20:37:01.734Z,78.76
2022-12-13T20:39:31.535Z,78.57
2022-12-13T20:42:04.850Z,78.50
2022-12-13T20:44:35.700Z,78.42
2022-12-13T20:47:06.592Z,78.30
2022-12-13T20:49:36.387Z,79.18
2022-12-13T20:52:06.638Z,79.72
2022-12-13T20:54:37.721Z,79.96
2022-12-13T20:57:10.159Z,80.21
2022-12-13T20:59:40.007Z,80.29
2022-12-13T21:02:12.890Z,79.99
2022-12-13T21:04:42.756Z,79.75
2022-12-13T21:07:12.670Z,80.34
2022-12-13T21:09:42.580Z,80.88
2022-12-13T21:12:14.913Z,79.68
2022-12-13T21:14:44.641Z,79.82
2022-12-13T21:17:17.241Z,80.69
2022-12-13T21:19:48.915Z,80.47
2022-12-13T21:22:19.314Z,80.63
2022-12-13T21:24:49.561Z,80.55
2022-12-13T21:27:22.451Z,80.78
2022-12-13T21:29:52.329Z,80.83
2022-12-13T21:32:22.172Z,80.43
2022-12-13T21:34:51.982Z,80.57
2022-12-13T21:37:21.786Z,80.82
2022-12-13T21:39:51.577Z,80.38
2022-12-13T21:42:24.015Z,80.37
2022-12-13T21:45:00.475Z,80.47
2022-12-13T21:47:31.903Z,80.37
2022-12-13T21:50:01.711Z,80.73
2022-12-13T21:52:31.530Z,81.01
2022-12-13T21:55:22.149Z,80.65
2022-12-13T21:58:11.615Z,80.21
2022-12-13T22:00:41.507Z,81.01
2022-12-13T22:03:11.347Z,79.98
2022-12-13T22:05:41.126Z,80.70
2022-12-13T22:08:10.992Z,80.61
2022-12-13T22:11:01.409Z,81.04
2022-12-13T22:13:34.810Z,81.49
2022-12-13T22:16:05.678Z,81.19
2022-12-13T22:18:36.823Z,81.19
2022-12-13T22:21:06.799Z,81.29
2022-12-13T22:23:36.575Z,81.35
2022-12-13T22:26:09.059Z,80.72
2022-12-13T22:28:42.652Z,81.32
2022-12-13T22:31:12.454Z,81.55
2022-12-13T22:33:42.292Z,81.96
2022-12-13T22:36:12.719Z,82.29
2022-12-13T22:38:42.489Z,81.78
2022-12-13T22:41:16.051Z,82.22
2022-12-13T22:43:48.574Z,82.21
2022-12-13T22:46:20.756Z,81.83
2022-12-13T22:48:51.897Z,82.20
2022-12-13T22:51:22.546Z,82.33
2022-12-13T22:53:52.322Z,82.43
2022-12-13T22:56:24.250Z,82.70
2022-12-13T22:59:01.314Z,82.25
2022-12-13T23:01:33.835Z,82.13
2022-12-13T23:04:04.249Z,82.47
2022-12-13T23:06:35.848Z,82.00
2022-12-13T23:09:08.921Z,81.35
2022-12-13T23:11:51.176Z,81.69
2022-12-13T23:14:29.074Z,81.67
2022-12-13T23:17:00.172Z,82.32
2022-12-13T23:19:49.120Z,81.79
2022-12-13T23:22:24.736Z,82.00
2022-12-13T23:24:55.210Z,82.14
2022-12-13T23:27:26.306Z,82.10
2022-12-13T23:29:58.742Z,81.68
2022-12-13T23:32:28.576Z,82.10
2022-12-13T23:34:59.394Z,82.03
2022-12-13T23:37:30.361Z,81.03
2022-12-13T23:40:01.161Z,81.87
2022-12-13T23:42:31.852Z,81.70
2022-12-13T23:45:04.220Z,81.98
2022-12-13T23:47:35.013Z,82.20
2022-12-13T23:50:04.792Z,82.00
2022-12-13T23:52:34.687Z,81.87
2022-12-13T23:55:04.904Z,81.44
2022-12-13T23:57:34.770Z,80.75
